PGT1794 ESSA-LTFJ
Flight info
| Callsign | PGT1794 |
|---|---|
| Flight time | 3h 14m |
| Altitude | 37000 |
| Route | BABAP T316 NEPVA DCT PENOR N133 LENOV DCT RAZEC DCT KEKED DCT BADOR DCT CONWI DCT LAMIT DCT TIMUR L606 ADORU UM19 IBODU |
| Aircraft | A320/M-SDE3FGHIRWY/LB1 |
Departure
| Time | 2026-05-06 17:51 |
|---|---|
| Airport | Stockholm-Arlanda Airport (ESSA) |
Arrival
| Time | 2026-05-06 21:05 |
|---|---|
| Airport | Istanbul Sabiha Gökçen International Airport (LTFJ) |
| Time | Latitude | Longitude | Altitude | Speed | Heading |
|---|---|---|---|---|---|
| 2026-05-06 17:08 | 59.65397 | 17.93534 | 138 ft | 0 kts | 75° |
| 2026-05-06 17:40 | 59.65395 | 17.93518 | 137 ft | 2 kts | 75° |
| 2026-05-06 17:40 | 59.65390 | 17.93485 | 137 ft | 2 kts | 75° |
| 2026-05-06 17:40 | 59.65386 | 17.93452 | 137 ft | 2 kts | 75° |
| 2026-05-06 17:40 | 59.65382 | 17.93419 | 137 ft | 2 kts | 53° |
| 2026-05-06 17:41 | 59.65369 | 17.93401 | 137 ft | 0 kts | 344° |
| 2026-05-06 17:44 | 59.65386 | 17.93391 | 137 ft | 7 kts | 343° |
| 2026-05-06 17:44 | 59.65440 | 17.93354 | 137 ft | 9 kts | 347° |
| 2026-05-06 17:44 | 59.65500 | 17.93331 | 137 ft | 9 kts | 335° |
| 2026-05-06 17:44 | 59.65518 | 17.93226 | 138 ft | 8 kts | 261° |
| 2026-05-06 17:45 | 59.65509 | 17.93132 | 138 ft | 7 kts | 257° |
| 2026-05-06 17:45 | 59.65489 | 17.92996 | 138 ft | 11 kts | 252° |
| 2026-05-06 17:45 | 59.65467 | 17.92862 | 138 ft | 9 kts | 251° |
| 2026-05-06 17:45 | 59.65443 | 17.92757 | 138 ft | 7 kts | 244° |
| 2026-05-06 17:46 | 59.65431 | 17.92669 | 138 ft | 8 kts | 275° |
| 2026-05-06 17:46 | 59.65481 | 17.92571 | 138 ft | 10 kts | 330° |
| 2026-05-06 17:46 | 59.65544 | 17.92524 | 138 ft | 12 kts | 344° |
| 2026-05-06 17:46 | 59.65625 | 17.92479 | 138 ft | 11 kts | 345° |
| 2026-05-06 17:47 | 59.65695 | 17.92442 | 138 ft | 10 kts | 345° |
| 2026-05-06 17:47 | 59.65794 | 17.92432 | 138 ft | 13 kts | 8° |
| 2026-05-06 17:47 | 59.65879 | 17.92461 | 138 ft | 11 kts | 11° |
| 2026-05-06 17:47 | 59.65983 | 17.92501 | 138 ft | 16 kts | 10° |
| 2026-05-06 17:48 | 59.66089 | 17.92538 | 138 ft | 14 kts | 10° |
| 2026-05-06 17:48 | 59.66182 | 17.92573 | 138 ft | 13 kts | 11° |
| 2026-05-06 17:48 | 59.66265 | 17.92603 | 138 ft | 13 kts | 10° |
| 2026-05-06 17:48 | 59.66376 | 17.92642 | 138 ft | 12 kts | 10° |
| 2026-05-06 17:49 | 59.66455 | 17.92655 | 138 ft | 11 kts | 353° |
| 2026-05-06 17:49 | 59.66524 | 17.92614 | 138 ft | 13 kts | 341° |
| 2026-05-06 17:49 | 59.66600 | 17.92547 | 139 ft | 10 kts | 317° |
| 2026-05-06 17:49 | 59.66612 | 17.92443 | 141 ft | 7 kts | 258° |
| 2026-05-06 17:50 | 59.66569 | 17.92359 | 141 ft | 9 kts | 200° |
| 2026-05-06 17:50 | 59.66509 | 17.92333 | 142 ft | 11 kts | 190° |
| 2026-05-06 17:50 | 59.66231 | 17.92236 | 144 ft | 80 kts | 190° |
| 2026-05-06 17:50 | 59.65457 | 17.91950 | 145 ft | 145 kts | 191° |
| 2026-05-06 17:51 | 59.64300 | 17.91522 | 299 ft | 184 kts | 189° |
| 2026-05-06 17:51 | 59.63001 | 17.91000 | 981 ft | 197 kts | 189° |
| 2026-05-06 17:51 | 59.61641 | 17.90606 | 1811 ft | 198 kts | 185° |
| 2026-05-06 17:51 | 59.60262 | 17.90414 | 2578 ft | 200 kts | 183° |
| 2026-05-06 17:52 | 59.58856 | 17.90269 | 3276 ft | 204 kts | 183° |
| 2026-05-06 17:52 | 59.57430 | 17.90214 | 3932 ft | 209 kts | 172° |
| 2026-05-06 17:52 | 59.56089 | 17.91418 | 4479 ft | 219 kts | 137° |
| 2026-05-06 17:52 | 59.55024 | 17.93633 | 5092 ft | 225 kts | 132° |
| 2026-05-06 17:53 | 59.54037 | 17.96056 | 5757 ft | 229 kts | 114° |
| 2026-05-06 17:53 | 59.53817 | 17.99112 | 6354 ft | 232 kts | 77° |
| 2026-05-06 17:53 | 59.54588 | 18.01933 | 6612 ft | 249 kts | 44° |
| 2026-05-06 17:53 | 59.55906 | 18.04382 | 6974 ft | 268 kts | 39° |
| 2026-05-06 17:54 | 59.57324 | 18.06839 | 7617 ft | 275 kts | 38° |
| 2026-05-06 17:54 | 59.58783 | 18.09335 | 8333 ft | 280 kts | 38° |
| 2026-05-06 17:54 | 59.60123 | 18.12149 | 9046 ft | 287 kts | 56° |
| 2026-05-06 17:54 | 59.60833 | 18.15878 | 9738 ft | 296 kts | 82° |
| 2026-05-06 17:55 | 59.60666 | 18.19920 | 10391 ft | 300 kts | 109° |
| 2026-05-06 17:55 | 59.59652 | 18.23644 | 10632 ft | 320 kts | 127° |
| 2026-05-06 17:55 | 59.58300 | 18.27314 | 10778 ft | 342 kts | 128° |
| 2026-05-06 17:55 | 59.56842 | 18.31221 | 10912 ft | 364 kts | 128° |
| 2026-05-06 17:56 | 59.55307 | 18.35335 | 11136 ft | 380 kts | 128° |
| 2026-05-06 17:56 | 59.53734 | 18.39579 | 11667 ft | 386 kts | 127° |
| 2026-05-06 17:56 | 59.52166 | 18.43837 | 12261 ft | 390 kts | 127° |
| 2026-05-06 17:56 | 59.50569 | 18.48191 | 12848 ft | 394 kts | 127° |
| 2026-05-06 17:57 | 59.48952 | 18.52593 | 13458 ft | 398 kts | 127° |
| 2026-05-06 17:57 | 59.47320 | 18.57014 | 14004 ft | 401 kts | 128° |
| 2026-05-06 17:57 | 59.45474 | 18.61125 | 14480 ft | 402 kts | 141° |
| 2026-05-06 17:57 | 59.43202 | 18.64304 | 14958 ft | 401 kts | 155° |
| 2026-05-06 17:58 | 59.40628 | 18.66358 | 15424 ft | 398 kts | 168° |
| 2026-05-06 17:58 | 59.37909 | 18.67186 | 15945 ft | 395 kts | 181° |
| 2026-05-06 17:58 | 59.35182 | 18.66794 | 16447 ft | 392 kts | 194° |
| 2026-05-06 17:58 | 59.32551 | 18.65431 | 16958 ft | 392 kts | 199° |
| 2026-05-06 17:59 | 59.29923 | 18.63973 | 17468 ft | 394 kts | 199° |
| 2026-05-06 17:59 | 59.27276 | 18.62524 | 17975 ft | 396 kts | 198° |
| 2026-05-06 17:59 | 59.24577 | 18.61584 | 18442 ft | 402 kts | 189° |
| 2026-05-06 17:59 | 59.21781 | 18.61149 | 18874 ft | 404 kts | 189° |
| 2026-05-06 18:00 | 59.18971 | 18.60714 | 19303 ft | 405 kts | 189° |
| 2026-05-06 18:00 | 59.16155 | 18.60275 | 19725 ft | 407 kts | 189° |
| 2026-05-06 18:00 | 59.13327 | 18.59835 | 20145 ft | 408 kts | 189° |
| 2026-05-06 18:00 | 59.10483 | 18.59387 | 20533 ft | 410 kts | 189° |
| 2026-05-06 18:01 | 59.07634 | 18.58934 | 20928 ft | 412 kts | 189° |
| 2026-05-06 18:01 | 59.04772 | 18.58479 | 21324 ft | 413 kts | 189° |
| 2026-05-06 18:01 | 59.01897 | 18.58026 | 21704 ft | 415 kts | 189° |
| 2026-05-06 18:01 | 58.99050 | 18.57582 | 22079 ft | 416 kts | 189° |
| 2026-05-06 18:02 | 58.96153 | 18.57131 | 22448 ft | 418 kts | 189° |
| 2026-05-06 18:02 | 58.93260 | 18.56624 | 22813 ft | 417 kts | 193° |
| 2026-05-06 18:02 | 58.90427 | 18.55499 | 23167 ft | 415 kts | 198° |
| 2026-05-06 18:02 | 58.87615 | 18.54183 | 23536 ft | 417 kts | 198° |
| 2026-05-06 18:03 | 58.84784 | 18.52856 | 23840 ft | 418 kts | 198° |
| 2026-05-06 18:03 | 58.81953 | 18.51529 | 24092 ft | 420 kts | 198° |
| 2026-05-06 18:03 | 58.79109 | 18.50203 | 24361 ft | 421 kts | 198° |
| 2026-05-06 18:03 | 58.76254 | 18.48878 | 24634 ft | 423 kts | 198° |
| 2026-05-06 18:04 | 58.73388 | 18.47550 | 24905 ft | 424 kts | 198° |
| 2026-05-06 18:04 | 58.70515 | 18.46218 | 25183 ft | 425 kts | 198° |
| 2026-05-06 18:04 | 58.67678 | 18.44905 | 25449 ft | 426 kts | 198° |
| 2026-05-06 18:04 | 58.64799 | 18.43579 | 25713 ft | 427 kts | 198° |
| 2026-05-06 18:05 | 58.61909 | 18.42251 | 25976 ft | 428 kts | 198° |
| 2026-05-06 18:05 | 58.59015 | 18.40921 | 26237 ft | 429 kts | 197° |
| 2026-05-06 18:05 | 58.56104 | 18.39585 | 26483 ft | 429 kts | 197° |
| 2026-05-06 18:05 | 58.53201 | 18.38255 | 26764 ft | 430 kts | 197° |
| 2026-05-06 18:06 | 58.50296 | 18.36932 | 27076 ft | 429 kts | 197° |
| 2026-05-06 18:06 | 58.47390 | 18.35614 | 27427 ft | 428 kts | 197° |
| 2026-05-06 18:06 | 58.44499 | 18.34306 | 27793 ft | 426 kts | 197° |
| 2026-05-06 18:06 | 58.41614 | 18.33000 | 28101 ft | 426 kts | 197° |
| 2026-05-06 18:07 | 58.38738 | 18.31696 | 28481 ft | 424 kts | 197° |
| 2026-05-06 18:07 | 58.35881 | 18.30401 | 28863 ft | 422 kts | 197° |
| 2026-05-06 18:07 | 58.33031 | 18.29107 | 29247 ft | 420 kts | 197° |
| 2026-05-06 18:07 | 58.30191 | 18.27818 | 29617 ft | 419 kts | 197° |
| 2026-05-06 18:08 | 58.27351 | 18.26534 | 29918 ft | 419 kts | 197° |
| 2026-05-06 18:08 | 58.24512 | 18.25255 | 30162 ft | 420 kts | 197° |
| 2026-05-06 18:08 | 58.21671 | 18.23976 | 30433 ft | 419 kts | 197° |
| 2026-05-06 18:08 | 58.18838 | 18.22705 | 30733 ft | 418 kts | 197° |
| 2026-05-06 18:09 | 58.16046 | 18.21455 | 31033 ft | 417 kts | 197° |
| 2026-05-06 18:09 | 58.13228 | 18.20192 | 31355 ft | 415 kts | 197° |
| 2026-05-06 18:09 | 58.10427 | 18.18939 | 31672 ft | 413 kts | 196° |
| 2026-05-06 18:09 | 58.07630 | 18.17693 | 31988 ft | 412 kts | 196° |
| 2026-05-06 18:10 | 58.04846 | 18.16453 | 32318 ft | 410 kts | 196° |
| 2026-05-06 18:10 | 58.02078 | 18.15221 | 32633 ft | 408 kts | 196° |
| 2026-05-06 18:10 | 57.99310 | 18.13990 | 32867 ft | 409 kts | 196° |
| 2026-05-06 18:10 | 57.96540 | 18.12761 | 33119 ft | 408 kts | 196° |
| 2026-05-06 18:11 | 57.93777 | 18.11541 | 33390 ft | 408 kts | 196° |
| 2026-05-06 18:11 | 57.91012 | 18.10323 | 33693 ft | 406 kts | 196° |
| 2026-05-06 18:11 | 57.88269 | 18.09113 | 33998 ft | 405 kts | 196° |
| 2026-05-06 18:11 | 57.85530 | 18.07905 | 34232 ft | 404 kts | 196° |
| 2026-05-06 18:12 | 57.82789 | 18.06698 | 34426 ft | 405 kts | 196° |
| 2026-05-06 18:12 | 57.80047 | 18.05493 | 34609 ft | 405 kts | 196° |
| 2026-05-06 18:12 | 57.77303 | 18.04291 | 34784 ft | 406 kts | 196° |
| 2026-05-06 18:12 | 57.74549 | 18.03085 | 34943 ft | 407 kts | 196° |
| 2026-05-06 18:13 | 57.71785 | 18.01881 | 35054 ft | 409 kts | 196° |
| 2026-05-06 18:13 | 57.69006 | 18.00670 | 35180 ft | 410 kts | 196° |
| 2026-05-06 18:13 | 57.66221 | 17.99456 | 35323 ft | 411 kts | 196° |
| 2026-05-06 18:13 | 57.63433 | 17.98243 | 35468 ft | 412 kts | 196° |
| 2026-05-06 18:14 | 57.60640 | 17.97031 | 35619 ft | 413 kts | 196° |
| 2026-05-06 18:14 | 57.57843 | 17.95820 | 35764 ft | 413 kts | 196° |
| 2026-05-06 18:14 | 57.55071 | 17.94620 | 35907 ft | 414 kts | 196° |
| 2026-05-06 18:14 | 57.52266 | 17.93406 | 36052 ft | 415 kts | 196° |
| 2026-05-06 18:15 | 57.49456 | 17.92191 | 36189 ft | 415 kts | 196° |
| 2026-05-06 18:15 | 57.46637 | 17.90974 | 36336 ft | 416 kts | 196° |
| 2026-05-06 18:15 | 57.43810 | 17.89759 | 36468 ft | 416 kts | 196° |
| 2026-05-06 18:15 | 57.40987 | 17.88548 | 36597 ft | 417 kts | 196° |
| 2026-05-06 18:16 | 57.38159 | 17.87335 | 36725 ft | 417 kts | 196° |
| 2026-05-06 18:16 | 57.35360 | 17.86139 | 36878 ft | 417 kts | 196° |
| 2026-05-06 18:16 | 57.29684 | 17.83712 | 36993 ft | 421 kts | 196° |
| 2026-05-06 18:17 | 57.23962 | 17.81271 | 36980 ft | 422 kts | 196° |
| 2026-05-06 18:17 | 57.18236 | 17.78844 | 36983 ft | 423 kts | 196° |
| 2026-05-06 18:18 | 57.12494 | 17.76416 | 36978 ft | 423 kts | 196° |
| 2026-05-06 18:18 | 57.06783 | 17.74019 | 36986 ft | 424 kts | 196° |
| 2026-05-06 18:19 | 57.01035 | 17.71610 | 36996 ft | 424 kts | 196° |
| 2026-05-06 18:19 | 56.95281 | 17.69189 | 36994 ft | 424 kts | 196° |
| 2026-05-06 18:20 | 56.89524 | 17.66787 | 36983 ft | 425 kts | 196° |
| 2026-05-06 18:20 | 56.83754 | 17.64394 | 36983 ft | 425 kts | 196° |
| 2026-05-06 18:21 | 56.77985 | 17.62002 | 36985 ft | 425 kts | 196° |
| 2026-05-06 18:21 | 56.72250 | 17.59619 | 36988 ft | 425 kts | 196° |
| 2026-05-06 18:22 | 56.66480 | 17.57241 | 36962 ft | 425 kts | 195° |
| 2026-05-06 18:22 | 56.60711 | 17.54872 | 36968 ft | 425 kts | 195° |
| 2026-05-06 18:23 | 56.54942 | 17.52513 | 36971 ft | 425 kts | 195° |
| 2026-05-06 18:23 | 56.49167 | 17.50158 | 36975 ft | 425 kts | 195° |
| 2026-05-06 18:24 | 56.43384 | 17.47797 | 36976 ft | 425 kts | 195° |
| 2026-05-06 18:24 | 56.37608 | 17.45455 | 36969 ft | 426 kts | 195° |
| 2026-05-06 18:25 | 56.31861 | 17.43131 | 36972 ft | 426 kts | 195° |
| 2026-05-06 18:25 | 56.26071 | 17.40783 | 36971 ft | 426 kts | 195° |
| 2026-05-06 18:26 | 56.20277 | 17.38449 | 36953 ft | 427 kts | 195° |
| 2026-05-06 18:26 | 56.14481 | 17.36124 | 36940 ft | 427 kts | 195° |
| 2026-05-06 18:27 | 56.08674 | 17.33797 | 36952 ft | 427 kts | 195° |
| 2026-05-06 18:27 | 56.02863 | 17.31485 | 36957 ft | 428 kts | 195° |
| 2026-05-06 18:28 | 55.97087 | 17.29204 | 36961 ft | 428 kts | 195° |
| 2026-05-06 18:28 | 55.91274 | 17.26910 | 36960 ft | 428 kts | 195° |
| 2026-05-06 18:29 | 55.85462 | 17.24616 | 36952 ft | 427 kts | 195° |
| 2026-05-06 18:29 | 55.79661 | 17.22330 | 36951 ft | 427 kts | 195° |
| 2026-05-06 18:30 | 55.73850 | 17.20043 | 36951 ft | 427 kts | 195° |
| 2026-05-06 18:30 | 55.68066 | 17.17852 | 36953 ft | 429 kts | 191° |
| 2026-05-06 18:31 | 55.62067 | 17.18253 | 36933 ft | 439 kts | 171° |
| 2026-05-06 18:31 | 55.59150 | 17.19943 | 36934 ft | 445 kts | 160° |
| 2026-05-06 18:31 | 55.56328 | 17.22238 | 36928 ft | 446 kts | 160° |
| 2026-05-06 18:32 | 55.50683 | 17.26817 | 36926 ft | 446 kts | 160° |
| 2026-05-06 18:32 | 55.45018 | 17.31358 | 36929 ft | 447 kts | 160° |
| 2026-05-06 18:33 | 55.39396 | 17.35850 | 36930 ft | 447 kts | 160° |
| 2026-05-06 18:33 | 55.33704 | 17.40395 | 36905 ft | 447 kts | 160° |
| 2026-05-06 18:34 | 55.28083 | 17.44882 | 36906 ft | 446 kts | 161° |
| 2026-05-06 18:34 | 55.22420 | 17.49389 | 36898 ft | 447 kts | 161° |
| 2026-05-06 18:35 | 55.16751 | 17.53838 | 36905 ft | 446 kts | 161° |
| 2026-05-06 18:35 | 55.11065 | 17.58178 | 36910 ft | 446 kts | 161° |
| 2026-05-06 18:36 | 55.05364 | 17.62508 | 36904 ft | 447 kts | 161° |
| 2026-05-06 18:36 | 54.99667 | 17.66849 | 36890 ft | 447 kts | 161° |
| 2026-05-06 18:37 | 54.94929 | 17.70474 | 36872 ft | 447 kts | 161° |
| 2026-05-06 18:37 | 54.88347 | 17.75667 | 36901 ft | 447 kts | 161° |
| 2026-05-06 18:38 | 54.82696 | 17.80166 | 36899 ft | 447 kts | 161° |
| 2026-05-06 18:38 | 54.77035 | 17.84616 | 36891 ft | 446 kts | 161° |
| 2026-05-06 18:39 | 54.71367 | 17.89017 | 36898 ft | 446 kts | 161° |
| 2026-05-06 18:40 | 54.63827 | 17.94859 | 36884 ft | 446 kts | 161° |
| 2026-05-06 18:40 | 54.57239 | 17.99954 | 36884 ft | 446 kts | 161° |
| 2026-05-06 18:41 | 54.52490 | 18.03610 | 36863 ft | 446 kts | 161° |
| 2026-05-06 18:41 | 54.46861 | 18.07925 | 36867 ft | 445 kts | 162° |
| 2026-05-06 18:42 | 54.41196 | 18.12240 | 36849 ft | 445 kts | 162° |
| 2026-05-06 18:42 | 54.35528 | 18.16554 | 36864 ft | 445 kts | 162° |
| 2026-05-06 18:43 | 54.29867 | 18.20854 | 36868 ft | 445 kts | 162° |
| 2026-05-06 18:43 | 54.24210 | 18.25134 | 36870 ft | 444 kts | 162° |
| 2026-05-06 18:44 | 54.18543 | 18.29377 | 36872 ft | 444 kts | 162° |
| 2026-05-06 18:44 | 54.12907 | 18.33575 | 36840 ft | 443 kts | 162° |
| 2026-05-06 18:45 | 54.07251 | 18.37778 | 36852 ft | 443 kts | 162° |
| 2026-05-06 18:45 | 54.01611 | 18.41959 | 36853 ft | 442 kts | 162° |
| 2026-05-06 18:46 | 53.95975 | 18.46135 | 36850 ft | 441 kts | 162° |
| 2026-05-06 18:46 | 53.90342 | 18.50281 | 36846 ft | 441 kts | 162° |
| 2026-05-06 18:47 | 53.84700 | 18.54420 | 36842 ft | 441 kts | 162° |
| 2026-05-06 18:47 | 53.79070 | 18.58542 | 36796 ft | 442 kts | 162° |
| 2026-05-06 18:48 | 53.73423 | 18.62666 | 36802 ft | 442 kts | 162° |
| 2026-05-06 18:48 | 53.67806 | 18.66758 | 36800 ft | 442 kts | 162° |
| 2026-05-06 18:49 | 53.62154 | 18.70871 | 36803 ft | 442 kts | 162° |
| 2026-05-06 18:49 | 53.56503 | 18.74967 | 36806 ft | 442 kts | 162° |
| 2026-05-06 18:50 | 53.50811 | 18.78835 | 36788 ft | 437 kts | 168° |
| 2026-05-06 18:50 | 53.45006 | 18.81906 | 36798 ft | 437 kts | 168° |
| 2026-05-06 18:51 | 53.39192 | 18.84961 | 36775 ft | 437 kts | 168° |
| 2026-05-06 18:51 | 53.33382 | 18.88000 | 36794 ft | 437 kts | 168° |
| 2026-05-06 18:52 | 53.27574 | 18.91042 | 36799 ft | 437 kts | 168° |
| 2026-05-06 18:52 | 53.21772 | 18.94082 | 36771 ft | 437 kts | 168° |
| 2026-05-06 18:53 | 53.16003 | 18.97101 | 36781 ft | 437 kts | 168° |
| 2026-05-06 18:53 | 53.10200 | 19.00110 | 36786 ft | 437 kts | 168° |
| 2026-05-06 18:54 | 53.04394 | 19.03117 | 36786 ft | 437 kts | 168° |
| 2026-05-06 18:54 | 52.98586 | 19.06119 | 36784 ft | 437 kts | 168° |
| 2026-05-06 18:55 | 52.92774 | 19.09114 | 36750 ft | 437 kts | 168° |
| 2026-05-06 18:55 | 52.86953 | 19.12103 | 36763 ft | 438 kts | 168° |
| 2026-05-06 18:56 | 52.81170 | 19.15073 | 36768 ft | 438 kts | 168° |
| 2026-05-06 18:56 | 52.75349 | 19.18042 | 36777 ft | 438 kts | 168° |
| 2026-05-06 18:57 | 52.69530 | 19.21003 | 36781 ft | 438 kts | 168° |
| 2026-05-06 18:57 | 52.63715 | 19.23954 | 36771 ft | 438 kts | 168° |
| 2026-05-06 18:58 | 52.57892 | 19.26918 | 36772 ft | 438 kts | 168° |
| 2026-05-06 18:58 | 52.52051 | 19.29875 | 36754 ft | 438 kts | 168° |
| 2026-05-06 18:59 | 52.46219 | 19.32820 | 36764 ft | 439 kts | 168° |
| 2026-05-06 18:59 | 52.40411 | 19.35740 | 36774 ft | 440 kts | 168° |
| 2026-05-06 19:00 | 52.34556 | 19.38665 | 36764 ft | 440 kts | 168° |
| 2026-05-06 19:00 | 52.28690 | 19.41589 | 36784 ft | 440 kts | 168° |
| 2026-05-06 19:01 | 52.22830 | 19.44512 | 36782 ft | 440 kts | 168° |
| 2026-05-06 19:01 | 52.16967 | 19.47425 | 36787 ft | 440 kts | 168° |
| 2026-05-06 19:02 | 52.11135 | 19.50308 | 36786 ft | 440 kts | 168° |
| 2026-05-06 19:02 | 52.05273 | 19.53201 | 36793 ft | 440 kts | 169° |
| 2026-05-06 19:03 | 51.99416 | 19.56082 | 36789 ft | 440 kts | 168° |
| 2026-05-06 19:03 | 51.93559 | 19.58971 | 36793 ft | 440 kts | 169° |
| 2026-05-06 19:04 | 51.87699 | 19.61846 | 36786 ft | 440 kts | 169° |
| 2026-05-06 19:04 | 51.81841 | 19.64707 | 36793 ft | 439 kts | 169° |
| 2026-05-06 19:05 | 51.76033 | 19.67613 | 36784 ft | 440 kts | 167° |
| 2026-05-06 19:05 | 51.70211 | 19.70726 | 36800 ft | 441 kts | 167° |
| 2026-05-06 19:06 | 51.64386 | 19.73858 | 36769 ft | 441 kts | 167° |
| 2026-05-06 19:06 | 51.58549 | 19.76928 | 36780 ft | 441 kts | 167° |
| 2026-05-06 19:07 | 51.52735 | 19.79962 | 36778 ft | 442 kts | 168° |
| 2026-05-06 19:07 | 51.46896 | 19.83010 | 36791 ft | 442 kts | 167° |
| 2026-05-06 19:08 | 51.41046 | 19.86078 | 36797 ft | 442 kts | 167° |
| 2026-05-06 19:08 | 51.35204 | 19.89119 | 36801 ft | 441 kts | 167° |
| 2026-05-06 19:09 | 51.29360 | 19.92152 | 36791 ft | 441 kts | 168° |
| 2026-05-06 19:09 | 51.23527 | 19.95171 | 36783 ft | 441 kts | 168° |
| 2026-05-06 19:10 | 51.17696 | 19.98178 | 36794 ft | 441 kts | 168° |
| 2026-05-06 19:10 | 51.11857 | 20.01174 | 36799 ft | 441 kts | 168° |
| 2026-05-06 19:11 | 51.06018 | 20.04187 | 36811 ft | 441 kts | 168° |
| 2026-05-06 19:11 | 51.00212 | 20.07176 | 36814 ft | 441 kts | 168° |
| 2026-05-06 19:12 | 50.94363 | 20.10134 | 36818 ft | 441 kts | 168° |
| 2026-05-06 19:12 | 50.88523 | 20.13064 | 36825 ft | 440 kts | 168° |
| 2026-05-06 19:13 | 50.82683 | 20.16024 | 36802 ft | 441 kts | 168° |
| 2026-05-06 19:13 | 50.76845 | 20.19000 | 36804 ft | 441 kts | 168° |
| 2026-05-06 19:14 | 50.71000 | 20.21949 | 36804 ft | 441 kts | 168° |
| 2026-05-06 19:14 | 50.65151 | 20.24887 | 36810 ft | 441 kts | 168° |
| 2026-05-06 19:15 | 50.59355 | 20.28101 | 36818 ft | 443 kts | 165° |
| 2026-05-06 19:15 | 50.53602 | 20.31635 | 36823 ft | 444 kts | 165° |
| 2026-05-06 19:16 | 50.47850 | 20.35157 | 36793 ft | 443 kts | 165° |
| 2026-05-06 19:16 | 50.42082 | 20.38582 | 36801 ft | 444 kts | 165° |
| 2026-05-06 19:17 | 50.36331 | 20.41938 | 36806 ft | 444 kts | 165° |
| 2026-05-06 19:17 | 50.30534 | 20.45329 | 36815 ft | 444 kts | 165° |
| 2026-05-06 19:18 | 50.24728 | 20.48738 | 36826 ft | 445 kts | 165° |
| 2026-05-06 19:18 | 50.18938 | 20.52141 | 36820 ft | 445 kts | 165° |
| 2026-05-06 19:19 | 50.13140 | 20.55522 | 36830 ft | 445 kts | 165° |
| 2026-05-06 19:19 | 50.07335 | 20.58889 | 36819 ft | 445 kts | 165° |
| 2026-05-06 19:20 | 50.01566 | 20.62230 | 36826 ft | 445 kts | 165° |
| 2026-05-06 19:20 | 49.95757 | 20.65587 | 36834 ft | 445 kts | 165° |
| 2026-05-06 19:21 | 49.89946 | 20.68957 | 36832 ft | 446 kts | 165° |
| 2026-05-06 19:21 | 49.84137 | 20.72301 | 36838 ft | 446 kts | 165° |
| 2026-05-06 19:22 | 49.78324 | 20.75715 | 36852 ft | 447 kts | 163° |
| 2026-05-06 19:22 | 49.72573 | 20.79398 | 36832 ft | 448 kts | 162° |
| 2026-05-06 19:23 | 49.66823 | 20.83168 | 36823 ft | 449 kts | 162° |
| 2026-05-06 19:23 | 49.61099 | 20.86852 | 36834 ft | 449 kts | 162° |
| 2026-05-06 19:24 | 49.55320 | 20.90508 | 36851 ft | 449 kts | 162° |
| 2026-05-06 19:24 | 49.49528 | 20.94157 | 36860 ft | 449 kts | 162° |
| 2026-05-06 19:25 | 49.43740 | 20.97812 | 36876 ft | 449 kts | 162° |
| 2026-05-06 19:25 | 49.37941 | 21.01471 | 36854 ft | 450 kts | 162° |
| 2026-05-06 19:26 | 49.32186 | 21.05096 | 36858 ft | 451 kts | 162° |
| 2026-05-06 19:26 | 49.26368 | 21.08742 | 36866 ft | 451 kts | 162° |
| 2026-05-06 19:27 | 49.20553 | 21.12377 | 36874 ft | 452 kts | 162° |
| 2026-05-06 19:27 | 49.14733 | 21.16006 | 36884 ft | 452 kts | 162° |
| 2026-05-06 19:28 | 49.08915 | 21.19627 | 36889 ft | 452 kts | 162° |
| 2026-05-06 19:28 | 49.03091 | 21.23240 | 36874 ft | 452 kts | 162° |
| 2026-05-06 19:29 | 48.97254 | 21.26852 | 36878 ft | 453 kts | 162° |
| 2026-05-06 19:29 | 48.91408 | 21.30462 | 36881 ft | 453 kts | 162° |
| 2026-05-06 19:30 | 48.85567 | 21.34051 | 36875 ft | 453 kts | 162° |
| 2026-05-06 19:30 | 48.79728 | 21.37645 | 36889 ft | 453 kts | 162° |
| 2026-05-06 19:31 | 48.73923 | 21.41209 | 36881 ft | 453 kts | 162° |
| 2026-05-06 19:31 | 48.65145 | 21.46566 | 36882 ft | 454 kts | 162° |
| 2026-05-06 19:32 | 48.59281 | 21.50138 | 36880 ft | 454 kts | 162° |
| 2026-05-06 19:32 | 48.53418 | 21.53701 | 36885 ft | 455 kts | 162° |
| 2026-05-06 19:33 | 48.47549 | 21.57257 | 36901 ft | 455 kts | 162° |
| 2026-05-06 19:33 | 48.41672 | 21.60799 | 36908 ft | 455 kts | 162° |
| 2026-05-06 19:34 | 48.35834 | 21.64315 | 36910 ft | 455 kts | 162° |
| 2026-05-06 19:34 | 48.29961 | 21.67853 | 36918 ft | 454 kts | 162° |
| 2026-05-06 19:35 | 48.24083 | 21.71382 | 36927 ft | 453 kts | 162° |
| 2026-05-06 19:35 | 48.18221 | 21.74892 | 36930 ft | 453 kts | 162° |
| 2026-05-06 19:36 | 48.12368 | 21.78384 | 36931 ft | 452 kts | 162° |
| 2026-05-06 19:36 | 48.06516 | 21.81861 | 36910 ft | 453 kts | 162° |
| 2026-05-06 19:37 | 48.00706 | 21.85318 | 36915 ft | 453 kts | 162° |
| 2026-05-06 19:37 | 47.95798 | 21.88230 | 36917 ft | 453 kts | 162° |
| 2026-05-06 19:38 | 47.88974 | 21.92259 | 36921 ft | 453 kts | 162° |
| 2026-05-06 19:38 | 47.84093 | 21.95130 | 36923 ft | 454 kts | 162° |
| 2026-05-06 19:39 | 47.78230 | 21.98588 | 36926 ft | 453 kts | 162° |
| 2026-05-06 19:39 | 47.72360 | 22.02041 | 36909 ft | 454 kts | 162° |
| 2026-05-06 19:40 | 47.66479 | 22.05484 | 36909 ft | 454 kts | 162° |
| 2026-05-06 19:40 | 47.60592 | 22.08921 | 36922 ft | 455 kts | 162° |
| 2026-05-06 19:41 | 47.54690 | 22.12334 | 36929 ft | 455 kts | 163° |
| 2026-05-06 19:41 | 47.48797 | 22.15563 | 36941 ft | 454 kts | 164° |
| 2026-05-06 19:42 | 47.42853 | 22.18728 | 36930 ft | 454 kts | 164° |
| 2026-05-06 19:42 | 47.36915 | 22.21908 | 36929 ft | 455 kts | 163° |
| 2026-05-06 19:43 | 47.30967 | 22.25124 | 36929 ft | 455 kts | 163° |
| 2026-05-06 19:43 | 47.25028 | 22.28348 | 36943 ft | 455 kts | 163° |
| 2026-05-06 19:44 | 47.19085 | 22.31564 | 36949 ft | 455 kts | 164° |
| 2026-05-06 19:44 | 47.13135 | 22.34748 | 36964 ft | 455 kts | 164° |
| 2026-05-06 19:45 | 47.07220 | 22.37904 | 36936 ft | 455 kts | 163° |
| 2026-05-06 19:45 | 47.01261 | 22.41095 | 36954 ft | 456 kts | 163° |
| 2026-05-06 19:46 | 46.95299 | 22.44285 | 36959 ft | 456 kts | 163° |
| 2026-05-06 19:46 | 46.89322 | 22.47466 | 36973 ft | 457 kts | 163° |
| 2026-05-06 19:47 | 46.83349 | 22.50637 | 36980 ft | 457 kts | 163° |
| 2026-05-06 19:47 | 46.77417 | 22.53781 | 36981 ft | 457 kts | 163° |
| 2026-05-06 19:48 | 46.71437 | 22.56938 | 36973 ft | 458 kts | 163° |
| 2026-05-06 19:48 | 46.65432 | 22.60043 | 36989 ft | 458 kts | 164° |
| 2026-05-06 19:49 | 46.59414 | 22.63108 | 36995 ft | 458 kts | 164° |
| 2026-05-06 19:49 | 46.53392 | 22.66193 | 36999 ft | 459 kts | 164° |
| 2026-05-06 19:50 | 46.47372 | 22.69280 | 37010 ft | 458 kts | 164° |
| 2026-05-06 19:50 | 46.41359 | 22.72359 | 36992 ft | 460 kts | 163° |
| 2026-05-06 19:51 | 46.35347 | 22.75417 | 36993 ft | 460 kts | 164° |
| 2026-05-06 19:51 | 46.29291 | 22.78476 | 36995 ft | 461 kts | 164° |
| 2026-05-06 19:52 | 46.23237 | 22.81545 | 37003 ft | 461 kts | 164° |
| 2026-05-06 19:52 | 46.17172 | 22.84615 | 37010 ft | 461 kts | 164° |
| 2026-05-06 19:53 | 46.11113 | 22.87676 | 36994 ft | 462 kts | 164° |
| 2026-05-06 19:53 | 46.05040 | 22.90731 | 36985 ft | 462 kts | 164° |
| 2026-05-06 19:54 | 45.98997 | 22.93762 | 36992 ft | 463 kts | 164° |
| 2026-05-06 19:54 | 45.92912 | 22.96806 | 36998 ft | 464 kts | 164° |
| 2026-05-06 19:55 | 45.86809 | 22.99857 | 37008 ft | 464 kts | 164° |
| 2026-05-06 19:55 | 45.80717 | 23.02905 | 37006 ft | 464 kts | 164° |
| 2026-05-06 19:56 | 45.74618 | 23.05935 | 37012 ft | 464 kts | 164° |
| 2026-05-06 19:56 | 45.68546 | 23.08935 | 37013 ft | 465 kts | 164° |
| 2026-05-06 19:57 | 45.62425 | 23.11971 | 37027 ft | 466 kts | 164° |
| 2026-05-06 19:57 | 45.56312 | 23.15001 | 37034 ft | 465 kts | 164° |
| 2026-05-06 19:58 | 45.50192 | 23.18017 | 37054 ft | 465 kts | 164° |
| 2026-05-06 19:58 | 45.44066 | 23.21027 | 37036 ft | 466 kts | 164° |
| 2026-05-06 19:59 | 45.37933 | 23.24037 | 37029 ft | 467 kts | 164° |
| 2026-05-06 19:59 | 45.31781 | 23.27045 | 37044 ft | 467 kts | 164° |
| 2026-05-06 20:00 | 45.25635 | 23.30044 | 37047 ft | 467 kts | 164° |
| 2026-05-06 20:00 | 45.19535 | 23.33018 | 37053 ft | 466 kts | 164° |
| 2026-05-06 20:01 | 45.13390 | 23.36001 | 37038 ft | 466 kts | 164° |
| 2026-05-06 20:01 | 45.07293 | 23.39140 | 37033 ft | 467 kts | 160° |
| 2026-05-06 20:02 | 45.01348 | 23.42878 | 37044 ft | 468 kts | 158° |
| 2026-05-06 20:02 | 44.95492 | 23.46758 | 37031 ft | 468 kts | 158° |
| 2026-05-06 20:03 | 44.89571 | 23.50536 | 37009 ft | 467 kts | 159° |
| 2026-05-06 20:03 | 44.83613 | 23.54209 | 37007 ft | 468 kts | 159° |
| 2026-05-06 20:04 | 44.77640 | 23.57873 | 36996 ft | 468 kts | 159° |
| 2026-05-06 20:04 | 44.71663 | 23.61555 | 36999 ft | 469 kts | 159° |
| 2026-05-06 20:05 | 44.65695 | 23.65245 | 37010 ft | 469 kts | 159° |
| 2026-05-06 20:05 | 44.59721 | 23.68940 | 37009 ft | 469 kts | 159° |
| 2026-05-06 20:06 | 44.53748 | 23.72627 | 37002 ft | 470 kts | 159° |
| 2026-05-06 20:06 | 44.47793 | 23.76274 | 37021 ft | 470 kts | 159° |
| 2026-05-06 20:07 | 44.41791 | 23.79942 | 37032 ft | 470 kts | 159° |
| 2026-05-06 20:07 | 44.35792 | 23.83600 | 37043 ft | 470 kts | 159° |
| 2026-05-06 20:08 | 44.29795 | 23.87254 | 37039 ft | 470 kts | 159° |
| 2026-05-06 20:08 | 44.23788 | 23.90914 | 36989 ft | 471 kts | 159° |
| 2026-05-06 20:09 | 44.17780 | 23.94555 | 36987 ft | 471 kts | 159° |
| 2026-05-06 20:09 | 44.11764 | 23.98196 | 36989 ft | 471 kts | 159° |
| 2026-05-06 20:10 | 44.05787 | 24.01815 | 36986 ft | 472 kts | 158° |
| 2026-05-06 20:10 | 43.99760 | 24.05452 | 36976 ft | 473 kts | 159° |
| 2026-05-06 20:11 | 43.93707 | 24.09086 | 36966 ft | 473 kts | 159° |
| 2026-05-06 20:11 | 43.87655 | 24.12707 | 36976 ft | 473 kts | 159° |
| 2026-05-06 20:12 | 43.81608 | 24.16322 | 36976 ft | 473 kts | 159° |
| 2026-05-06 20:12 | 43.75599 | 24.19906 | 36968 ft | 474 kts | 158° |
| 2026-05-06 20:13 | 43.69640 | 24.23845 | 36962 ft | 476 kts | 148° |
| 2026-05-06 20:13 | 43.64556 | 24.29696 | 36965 ft | 478 kts | 136° |
| 2026-05-06 20:14 | 43.59778 | 24.36090 | 36966 ft | 478 kts | 136° |
| 2026-05-06 20:14 | 43.54982 | 24.42459 | 36971 ft | 478 kts | 136° |
| 2026-05-06 20:15 | 43.50176 | 24.48815 | 36966 ft | 479 kts | 136° |
| 2026-05-06 20:15 | 43.45404 | 24.55130 | 36789 ft | 478 kts | 136° |
| 2026-05-06 20:16 | 43.43009 | 24.58302 | 36126 ft | 478 kts | 136° |
| 2026-05-06 20:16 | 43.40616 | 24.61472 | 35399 ft | 479 kts | 136° |
| 2026-05-06 20:16 | 43.38205 | 24.64658 | 34629 ft | 481 kts | 136° |
| 2026-05-06 20:16 | 43.35782 | 24.67850 | 33860 ft | 484 kts | 136° |
| 2026-05-06 20:17 | 43.33347 | 24.71048 | 32997 ft | 486 kts | 136° |
| 2026-05-06 20:17 | 43.30895 | 24.74259 | 32141 ft | 488 kts | 136° |
| 2026-05-06 20:17 | 43.28434 | 24.77481 | 31278 ft | 490 kts | 136° |
| 2026-05-06 20:17 | 43.25966 | 24.80715 | 30483 ft | 491 kts | 136° |
| 2026-05-06 20:18 | 43.23492 | 24.83959 | 30150 ft | 493 kts | 136° |
| 2026-05-06 20:18 | 43.21004 | 24.87222 | 29935 ft | 496 kts | 136° |
| 2026-05-06 20:18 | 43.15996 | 24.93769 | 29979 ft | 498 kts | 136° |
| 2026-05-06 20:19 | 43.10977 | 25.00304 | 30000 ft | 497 kts | 136° |
| 2026-05-06 20:19 | 43.05994 | 25.06790 | 30015 ft | 497 kts | 136° |
| 2026-05-06 20:20 | 43.00960 | 25.13320 | 30005 ft | 500 kts | 136° |
| 2026-05-06 20:20 | 42.95900 | 25.19861 | 30011 ft | 501 kts | 136° |
| 2026-05-06 20:21 | 42.90842 | 25.26396 | 30021 ft | 501 kts | 136° |
| 2026-05-06 20:21 | 42.85783 | 25.32920 | 30026 ft | 499 kts | 136° |
| 2026-05-06 20:22 | 42.80739 | 25.39405 | 30032 ft | 498 kts | 136° |
| 2026-05-06 20:22 | 42.75692 | 25.45871 | 30033 ft | 498 kts | 136° |
| 2026-05-06 20:23 | 42.70640 | 25.52341 | 30042 ft | 499 kts | 136° |
| 2026-05-06 20:23 | 42.65573 | 25.58819 | 30041 ft | 501 kts | 136° |
| 2026-05-06 20:24 | 42.60527 | 25.65252 | 30036 ft | 500 kts | 136° |
| 2026-05-06 20:24 | 42.55452 | 25.71707 | 30049 ft | 500 kts | 136° |
| 2026-05-06 20:25 | 42.50361 | 25.78153 | 30046 ft | 502 kts | 136° |
| 2026-05-06 20:25 | 42.45248 | 25.84617 | 30049 ft | 502 kts | 136° |
| 2026-05-06 20:26 | 42.40131 | 25.91077 | 30046 ft | 503 kts | 136° |
| 2026-05-06 20:26 | 42.35047 | 25.97479 | 29878 ft | 501 kts | 136° |
| 2026-05-06 20:27 | 42.32501 | 26.00681 | 28882 ft | 501 kts | 136° |
| 2026-05-06 20:27 | 42.29950 | 26.03886 | 28283 ft | 501 kts | 136° |
| 2026-05-06 20:27 | 42.27388 | 26.07098 | 28046 ft | 503 kts | 136° |
| 2026-05-06 20:27 | 42.24825 | 26.10308 | 28044 ft | 503 kts | 136° |
| 2026-05-06 20:28 | 42.19682 | 26.16714 | 28042 ft | 504 kts | 137° |
| 2026-05-06 20:28 | 42.14513 | 26.23119 | 28048 ft | 504 kts | 136° |
| 2026-05-06 20:29 | 42.09463 | 26.29656 | 28041 ft | 503 kts | 127° |
| 2026-05-06 20:29 | 42.05688 | 26.37371 | 28042 ft | 475 kts | 120° |
| 2026-05-06 20:30 | 42.03966 | 26.41054 | 28049 ft | 457 kts | 120° |
| 2026-05-06 20:30 | 42.00739 | 26.47978 | 27943 ft | 426 kts | 120° |
| 2026-05-06 20:30 | 41.99184 | 26.51313 | 27676 ft | 416 kts | 120° |
| 2026-05-06 20:31 | 41.97659 | 26.54574 | 27422 ft | 408 kts | 120° |
| 2026-05-06 20:31 | 41.96165 | 26.57759 | 27166 ft | 400 kts | 120° |
| 2026-05-06 20:31 | 41.94696 | 26.60889 | 26903 ft | 392 kts | 120° |
| 2026-05-06 20:31 | 41.93259 | 26.63951 | 26660 ft | 384 kts | 120° |
| 2026-05-06 20:32 | 41.91844 | 26.66960 | 26407 ft | 377 kts | 120° |
| 2026-05-06 20:32 | 41.90454 | 26.69910 | 26168 ft | 370 kts | 119° |
| 2026-05-06 20:32 | 41.89092 | 26.72797 | 25925 ft | 363 kts | 119° |
| 2026-05-06 20:32 | 41.87750 | 26.75640 | 25680 ft | 358 kts | 119° |
| 2026-05-06 20:33 | 41.86429 | 26.78444 | 25440 ft | 354 kts | 119° |
| 2026-05-06 20:33 | 41.85113 | 26.81230 | 25196 ft | 352 kts | 119° |
| 2026-05-06 20:33 | 41.83803 | 26.83990 | 24957 ft | 349 kts | 119° |
| 2026-05-06 20:33 | 41.82502 | 26.86730 | 24737 ft | 347 kts | 119° |
| 2026-05-06 20:34 | 41.81208 | 26.89456 | 24499 ft | 345 kts | 119° |
| 2026-05-06 20:34 | 41.79938 | 26.92128 | 24267 ft | 343 kts | 119° |
| 2026-05-06 20:34 | 41.78663 | 26.94815 | 24053 ft | 341 kts | 118° |
| 2026-05-06 20:34 | 41.77390 | 26.97502 | 23822 ft | 340 kts | 118° |
| 2026-05-06 20:35 | 41.76127 | 27.00162 | 23582 ft | 338 kts | 119° |
| 2026-05-06 20:35 | 41.74867 | 27.02809 | 23294 ft | 336 kts | 119° |
| 2026-05-06 20:35 | 41.73613 | 27.05435 | 23044 ft | 334 kts | 119° |
| 2026-05-06 20:35 | 41.72365 | 27.08045 | 22769 ft | 332 kts | 119° |
| 2026-05-06 20:36 | 41.71120 | 27.10647 | 22506 ft | 330 kts | 119° |
| 2026-05-06 20:36 | 41.69884 | 27.13227 | 22241 ft | 328 kts | 119° |
| 2026-05-06 20:36 | 41.68660 | 27.15785 | 21985 ft | 326 kts | 119° |
| 2026-05-06 20:36 | 41.67441 | 27.18331 | 21723 ft | 324 kts | 119° |
| 2026-05-06 20:37 | 41.66224 | 27.20871 | 21478 ft | 324 kts | 119° |
| 2026-05-06 20:37 | 41.65011 | 27.23398 | 21223 ft | 322 kts | 119° |
| 2026-05-06 20:37 | 41.63807 | 27.25906 | 20979 ft | 320 kts | 119° |
| 2026-05-06 20:37 | 41.62623 | 27.28372 | 20738 ft | 318 kts | 119° |
| 2026-05-06 20:38 | 41.61430 | 27.30854 | 20480 ft | 318 kts | 119° |
| 2026-05-06 20:38 | 41.60239 | 27.33332 | 20237 ft | 316 kts | 119° |
| 2026-05-06 20:38 | 41.59054 | 27.35795 | 19991 ft | 314 kts | 119° |
| 2026-05-06 20:38 | 41.57875 | 27.38243 | 19740 ft | 312 kts | 119° |
| 2026-05-06 20:39 | 41.56704 | 27.40677 | 19514 ft | 311 kts | 119° |
| 2026-05-06 20:39 | 41.55532 | 27.43105 | 19279 ft | 310 kts | 119° |
| 2026-05-06 20:39 | 41.54367 | 27.45514 | 19040 ft | 308 kts | 119° |
| 2026-05-06 20:39 | 41.53204 | 27.47916 | 18819 ft | 307 kts | 119° |
| 2026-05-06 20:40 | 41.52049 | 27.50300 | 18584 ft | 306 kts | 119° |
| 2026-05-06 20:40 | 41.50910 | 27.52648 | 18343 ft | 304 kts | 119° |
| 2026-05-06 20:40 | 41.49761 | 27.55012 | 18075 ft | 303 kts | 119° |
| 2026-05-06 20:40 | 41.48615 | 27.57367 | 17812 ft | 302 kts | 119° |
| 2026-05-06 20:41 | 41.47474 | 27.59711 | 17552 ft | 300 kts | 119° |
| 2026-05-06 20:41 | 41.46335 | 27.62048 | 17290 ft | 299 kts | 119° |
| 2026-05-06 20:41 | 41.45586 | 27.63589 | 17117 ft | 298 kts | 119° |
| 2026-05-06 20:41 | 41.44463 | 27.65904 | 16859 ft | 297 kts | 119° |
| 2026-05-06 20:42 | 41.43343 | 27.68214 | 16602 ft | 296 kts | 119° |
| 2026-05-06 20:42 | 41.42226 | 27.70507 | 16349 ft | 294 kts | 119° |
| 2026-05-06 20:42 | 41.40755 | 27.73531 | 16017 ft | 293 kts | 119° |
| 2026-05-06 20:42 | 41.39652 | 27.75799 | 15767 ft | 292 kts | 119° |
| 2026-05-06 20:43 | 41.38550 | 27.78058 | 15522 ft | 290 kts | 120° |
| 2026-05-06 20:43 | 41.37806 | 27.79582 | 15364 ft | 289 kts | 120° |
| 2026-05-06 20:43 | 41.36726 | 27.81792 | 15114 ft | 288 kts | 120° |
| 2026-05-06 20:43 | 41.35633 | 27.84024 | 14868 ft | 287 kts | 120° |
| 2026-05-06 20:44 | 41.34543 | 27.86246 | 14635 ft | 286 kts | 120° |
| 2026-05-06 20:44 | 41.33460 | 27.88454 | 14393 ft | 285 kts | 120° |
| 2026-05-06 20:44 | 41.32377 | 27.90662 | 14148 ft | 284 kts | 120° |
| 2026-05-06 20:44 | 41.31302 | 27.92853 | 13919 ft | 282 kts | 120° |
| 2026-05-06 20:45 | 41.30232 | 27.95032 | 13671 ft | 281 kts | 120° |
| 2026-05-06 20:45 | 41.29162 | 27.97207 | 13393 ft | 280 kts | 120° |
| 2026-05-06 20:45 | 41.28096 | 27.99372 | 13126 ft | 279 kts | 120° |
| 2026-05-06 20:45 | 41.27038 | 28.01524 | 12870 ft | 278 kts | 120° |
| 2026-05-06 20:46 | 41.25979 | 28.03677 | 12612 ft | 277 kts | 120° |
| 2026-05-06 20:46 | 41.24929 | 28.05812 | 12356 ft | 276 kts | 120° |
| 2026-05-06 20:46 | 41.23880 | 28.07940 | 12111 ft | 274 kts | 120° |
| 2026-05-06 20:46 | 41.22849 | 28.10031 | 11865 ft | 273 kts | 120° |
| 2026-05-06 20:47 | 41.21812 | 28.12139 | 11615 ft | 272 kts | 120° |
| 2026-05-06 20:47 | 41.20775 | 28.14241 | 11361 ft | 271 kts | 120° |
| 2026-05-06 20:47 | 41.19743 | 28.16329 | 11116 ft | 270 kts | 120° |
| 2026-05-06 20:47 | 41.18716 | 28.18406 | 10869 ft | 269 kts | 120° |
| 2026-05-06 20:48 | 41.17688 | 28.20478 | 10631 ft | 268 kts | 120° |
| 2026-05-06 20:48 | 41.16663 | 28.22541 | 10395 ft | 267 kts | 120° |
| 2026-05-06 20:48 | 41.15641 | 28.24593 | 10161 ft | 266 kts | 120° |
| 2026-05-06 20:48 | 41.14622 | 28.26642 | 9934 ft | 264 kts | 120° |
| 2026-05-06 20:49 | 41.13623 | 28.28652 | 9801 ft | 265 kts | 120° |
| 2026-05-06 20:49 | 41.12611 | 28.30690 | 9663 ft | 265 kts | 120° |
| 2026-05-06 20:49 | 41.11599 | 28.32732 | 9539 ft | 264 kts | 120° |
| 2026-05-06 20:49 | 41.10586 | 28.34771 | 9404 ft | 264 kts | 120° |
| 2026-05-06 20:50 | 41.09578 | 28.36800 | 9265 ft | 263 kts | 120° |
| 2026-05-06 20:50 | 41.08573 | 28.38819 | 9141 ft | 263 kts | 120° |
| 2026-05-06 20:50 | 41.07566 | 28.40839 | 9021 ft | 262 kts | 120° |
| 2026-05-06 20:50 | 41.06562 | 28.42854 | 8876 ft | 262 kts | 120° |
| 2026-05-06 20:51 | 41.05558 | 28.44868 | 8765 ft | 262 kts | 121° |
| 2026-05-06 20:51 | 41.04555 | 28.46874 | 8637 ft | 261 kts | 121° |
| 2026-05-06 20:51 | 41.03549 | 28.48880 | 8505 ft | 261 kts | 121° |
| 2026-05-06 20:51 | 41.02547 | 28.50878 | 8384 ft | 260 kts | 121° |
| 2026-05-06 20:52 | 41.01545 | 28.52878 | 8242 ft | 260 kts | 121° |
| 2026-05-06 20:52 | 41.00546 | 28.54875 | 8126 ft | 260 kts | 121° |
| 2026-05-06 20:52 | 40.99561 | 28.56843 | 8005 ft | 260 kts | 121° |
| 2026-05-06 20:52 | 40.98564 | 28.58832 | 7877 ft | 259 kts | 121° |
| 2026-05-06 20:53 | 40.97567 | 28.60820 | 7756 ft | 259 kts | 121° |
| 2026-05-06 20:53 | 40.96572 | 28.62805 | 7627 ft | 258 kts | 121° |
| 2026-05-06 20:53 | 40.95577 | 28.64787 | 7502 ft | 258 kts | 121° |
| 2026-05-06 20:53 | 40.94582 | 28.66763 | 7387 ft | 258 kts | 121° |
| 2026-05-06 20:54 | 40.93583 | 28.68752 | 7265 ft | 259 kts | 121° |
| 2026-05-06 20:54 | 40.92586 | 28.70735 | 7143 ft | 259 kts | 121° |
| 2026-05-06 20:54 | 40.91585 | 28.72720 | 7021 ft | 259 kts | 122° |
| 2026-05-06 20:54 | 40.90602 | 28.74667 | 6902 ft | 256 kts | 122° |
| 2026-05-06 20:55 | 40.89626 | 28.76598 | 6780 ft | 249 kts | 122° |
| 2026-05-06 20:55 | 40.88682 | 28.78467 | 6659 ft | 241 kts | 122° |
| 2026-05-06 20:55 | 40.87762 | 28.80288 | 6529 ft | 235 kts | 122° |
| 2026-05-06 20:55 | 40.86859 | 28.82072 | 6410 ft | 232 kts | 122° |
| 2026-05-06 20:56 | 40.85962 | 28.83843 | 6273 ft | 231 kts | 122° |
| 2026-05-06 20:56 | 40.85067 | 28.85609 | 6094 ft | 231 kts | 122° |
| 2026-05-06 20:56 | 40.84190 | 28.87342 | 5783 ft | 222 kts | 122° |
| 2026-05-06 20:56 | 40.83349 | 28.89005 | 5430 ft | 214 kts | 123° |
| 2026-05-06 20:57 | 40.82537 | 28.90610 | 5093 ft | 207 kts | 123° |
| 2026-05-06 20:57 | 40.81749 | 28.92167 | 4776 ft | 201 kts | 123° |
| 2026-05-06 20:57 | 40.80986 | 28.93673 | 4554 ft | 190 kts | 124° |
| 2026-05-06 20:57 | 40.80294 | 28.95038 | 4503 ft | 175 kts | 124° |
| 2026-05-06 20:58 | 40.79622 | 28.96362 | 4466 ft | 173 kts | 124° |
| 2026-05-06 20:58 | 40.78955 | 28.97677 | 4399 ft | 172 kts | 124° |
| 2026-05-06 20:58 | 40.78302 | 28.98995 | 4338 ft | 172 kts | 117° |
| 2026-05-06 20:58 | 40.77949 | 29.00483 | 4263 ft | 170 kts | 92° |
| 2026-05-06 20:59 | 40.78056 | 29.02009 | 4180 ft | 167 kts | 69° |
| 2026-05-06 20:59 | 40.78530 | 29.03417 | 3825 ft | 171 kts | 60° |
| 2026-05-06 20:59 | 40.79071 | 29.04853 | 3401 ft | 178 kts | 61° |
| 2026-05-06 20:59 | 40.79621 | 29.06327 | 3029 ft | 177 kts | 62° |
| 2026-05-06 21:00 | 40.80141 | 29.07725 | 2990 ft | 165 kts | 62° |
| 2026-05-06 21:00 | 40.80638 | 29.09062 | 3029 ft | 161 kts | 62° |
| 2026-05-06 21:00 | 40.81129 | 29.10385 | 3013 ft | 159 kts | 62° |
| 2026-05-06 21:00 | 40.81611 | 29.11683 | 3011 ft | 159 kts | 62° |
| 2026-05-06 21:01 | 40.82097 | 29.12991 | 3029 ft | 156 kts | 62° |
| 2026-05-06 21:01 | 40.82569 | 29.14264 | 2894 ft | 153 kts | 62° |
| 2026-05-06 21:01 | 40.83037 | 29.15526 | 2726 ft | 152 kts | 62° |
| 2026-05-06 21:01 | 40.83500 | 29.16775 | 2532 ft | 151 kts | 63° |
| 2026-05-06 21:02 | 40.83961 | 29.18019 | 2345 ft | 150 kts | 63° |
| 2026-05-06 21:02 | 40.84418 | 29.19253 | 2139 ft | 150 kts | 63° |
| 2026-05-06 21:02 | 40.84874 | 29.20486 | 1930 ft | 149 kts | 63° |
| 2026-05-06 21:02 | 40.85321 | 29.21693 | 1743 ft | 148 kts | 63° |
| 2026-05-06 21:03 | 40.85771 | 29.22911 | 1540 ft | 147 kts | 63° |
| 2026-05-06 21:03 | 40.86216 | 29.24115 | 1345 ft | 145 kts | 62° |
| 2026-05-06 21:03 | 40.86653 | 29.25298 | 1148 ft | 141 kts | 63° |
| 2026-05-06 21:03 | 40.87079 | 29.26450 | 950 ft | 138 kts | 63° |
| 2026-05-06 21:04 | 40.87494 | 29.27577 | 779 ft | 135 kts | 63° |
| 2026-05-06 21:04 | 40.87908 | 29.28682 | 603 ft | 134 kts | 63° |
| 2026-05-06 21:04 | 40.88314 | 29.29782 | 404 ft | 132 kts | 64° |
| 2026-05-06 21:04 | 40.88702 | 29.30855 | 287 ft | 116 kts | 64° |
| 2026-05-06 21:05 | 40.88983 | 29.31601 | 310 ft | 76 kts | 63° |
| 2026-05-06 21:05 | 40.89181 | 29.32140 | 304 ft | 42 kts | 64° |
| 2026-05-06 21:05 | 40.89302 | 29.32363 | 303 ft | 23 kts | 40° |
| 2026-05-06 21:05 | 40.89374 | 29.32436 | 306 ft | 11 kts | 37° |
| 2026-05-06 21:06 | 40.89439 | 29.32498 | 307 ft | 12 kts | 35° |
| 2026-05-06 21:06 | 40.89493 | 29.32477 | 308 ft | 8 kts | 286° |
| 2026-05-06 21:06 | 40.89498 | 29.32409 | 308 ft | 7 kts | 280° |
| 2026-05-06 21:06 | 40.89523 | 29.32363 | 307 ft | 6 kts | 317° |
| 2026-05-06 21:07 | 40.89555 | 29.32346 | 307 ft | 6 kts | 347° |
| 2026-05-06 21:07 | 40.89637 | 29.32317 | 306 ft | 17 kts | 339° |
| 2026-05-06 21:07 | 40.89745 | 29.32251 | 307 ft | 17 kts | 335° |
| 2026-05-06 21:07 | 40.89829 | 29.32196 | 311 ft | 10 kts | 333° |
| 2026-05-06 21:08 | 40.89873 | 29.32167 | 312 ft | 5 kts | 333° |
| 2026-05-06 21:08 | 40.89909 | 29.32160 | 313 ft | 5 kts | 19° |
| 2026-05-06 21:08 | 40.89927 | 29.32183 | 313 ft | 3 kts | 58° |
| 2026-05-06 21:08 | 40.89945 | 29.32229 | 313 ft | 6 kts | 63° |
| 2026-05-06 21:09 | 40.89954 | 29.32252 | 312 ft | 1 kts | 63° |
| 2026-05-06 21:09 | 40.89954 | 29.32253 | 313 ft | 0 kts | 63° |